TimeCDT,TemperatureF,Dew PointF,Humidity,Sea Level PressureIn,VisibilityMPH,Wind Direction,Wind SpeedMPH,Gust SpeedMPH,PrecipitationIn,Events,Conditions,WindDirDegrees,DateUTC
12:52 AM,30.0,27.0,88,30.04,10.0,Calm,Calm,-,N/A,,Mostly Cloudy,0,2013-10-23 05:52:00
1:52 AM,32.0,27.0,82,30.04,10.0,NW,4.6,-,N/A,,Overcast,310,2013-10-23 06:52:00
2:52 AM,32.0,28.0,85,30.04,10.0,West,5.8,-,N/A,,Overcast,280,2013-10-23 07:52:00
3:52 AM,33.1,28.9,85,30.03,10.0,West,5.8,-,N/A,,Overcast,280,2013-10-23 08:52:00
4:52 AM,32.0,28.9,88,30.04,10.0,WNW,6.9,-,N/A,,Mostly Cloudy,300,2013-10-23 09:52:00
5:52 AM,28.9,26.1,89,30.04,10.0,WNW,5.8,-,N/A,,Clear,290,2013-10-23 10:52:00
6:52 AM,27.0,25.0,92,30.06,10.0,West,5.8,-,N/A,,Clear,270,2013-10-23 11:52:00
7:52 AM,27.0,25.0,92,30.07,10.0,West,6.9,-,N/A,,Clear,270,2013-10-23 12:52:00
8:52 AM,32.0,28.0,85,30.09,10.0,West,8.1,-,N/A,,Scattered Clouds,280,2013-10-23 13:52:00
9:52 AM,36.0,28.9,76,30.08,10.0,WNW,10.4,-,N/A,,Clear,300,2013-10-23 14:52:00
10:52 AM,39.0,30.9,73,30.09,10.0,WNW,9.2,-,N/A,,Partly Cloudy,300,2013-10-23 15:52:00
11:52 AM,39.9,26.1,58,30.09,10.0,WNW,10.4,-,N/A,,Mostly Cloudy,300,2013-10-23 16:52:00
12:52 PM,42.1,21.9,45,30.08,10.0,NW,10.4,20.7,N/A,,Mostly Cloudy,310,2013-10-23 17:52:00
1:52 PM,41.0,23.0,49,30.06,10.0,WNW,11.5,-,N/A,,Overcast,300,2013-10-23 18:52:00
2:52 PM,42.1,25.0,51,30.06,10.0,WNW,13.8,-,N/A,,Overcast,300,2013-10-23 19:52:00
3:52 PM,41.0,28.0,60,30.06,10.0,WNW,15.0,20.7,N/A,,Overcast,300,2013-10-23 20:52:00
4:52 PM,39.0,30.9,73,30.07,10.0,WNW,10.4,-,0.00,Rain,Light Rain,300,2013-10-23 21:52:00
5:52 PM,37.0,32.0,82,30.07,10.0,WSW,6.9,-,0.00,,Overcast,250,2013-10-23 22:52:00
6:52 PM,37.0,32.0,82,30.08,10.0,West,6.9,-,N/A,,Overcast,260,2013-10-23 23:52:00
7:32 PM,37.4,32.0,81,30.06,9.0,West,5.8,-,0.00,Snow,Light Snow,270,2013-10-24 00:32:00
7:52 PM,37.0,33.1,86,30.09,8.0,West,8.1,-,0.01,Snow,Light Snow,270,2013-10-24 00:52:00
8:52 PM,36.0,33.1,89,30.09,9.0,West,6.9,-,0.00,Snow,Light Snow,270,2013-10-24 01:52:00
8:55 PM,35.6,33.8,93,30.06,9.0,West,8.1,-,0.00,,Overcast,270,2013-10-24 01:55:00
9:52 PM,37.0,30.9,79,30.09,10.0,NW,13.8,-,0.00,,Overcast,320,2013-10-24 02:52:00
10:52 PM,36.0,26.1,67,30.10,10.0,NW,11.5,-,N/A,,Overcast,320,2013-10-24 03:52:00
11:52 PM,35.1,23.0,61,30.11,10.0,WNW,9.2,-,N/A,,Overcast,300,2013-10-24 04:52:00